Time;durP1;ratioP1;P1;durP2;ratioP2;P2;SDS_P1;SDS_P2;PMS_P1;PMS_P2;Temp;Humidity;BMP_temperature;BMP_pressure;BME280_temperature;BME280_humidity;BME280_pressure;Samples;Min_cycle;Max_cycle;Signal;HPM_P1;HPM_P2
2022/10/24 00:01:26;;;;;;;20.90;4.70;;;;;;;14.48;100.00;100288.31;5092288;28;20491;-45
2022/10/24 00:03:51;;;;;;;21.50;5.13;;;;;;;14.50;100.00;100297.00;5092989;28;20115;-48
2022/10/24 00:06:18;;;;;;;28.08;5.35;;;;;;;14.52;100.00;100286.63;5093053;28;20032;-47
2022/10/24 00:08:43;;;;;;;14.07;4.60;;;;;;;14.60;100.00;100284.91;5092016;28;20089;-46
2022/10/24 00:11:15;;;;;;;21.45;5.03;;;;;;;14.61;99.81;100284.06;5092861;28;20456;-47
2022/10/24 00:13:41;;;;;;;17.60;4.45;;;;;;;14.63;99.04;100279.75;5093193;28;20051;-47
2022/10/24 00:16:07;;;;;;;21.08;4.80;;;;;;;14.64;98.42;100284.09;5092003;28;20035;-48
2022/10/24 00:18:33;;;;;;;18.08;4.10;;;;;;;14.63;98.10;100279.75;5094028;28;20036;-49
2022/10/24 00:20:58;;;;;;;22.60;4.60;;;;;;;14.67;96.88;100275.44;5096097;28;20425;-48
2022/10/24 00:23:24;;;;;;;20.80;4.30;;;;;;;14.70;96.64;100278.06;5097187;28;20365;-47
2022/10/24 00:25:49;;;;;;;21.35;4.82;;;;;;;14.74;95.76;100277.22;5096695;28;20032;-47
2022/10/24 00:28:14;;;;;;;16.05;4.65;;;;;;;14.73;95.77;100275.47;5096058;28;20016;-48
2022/10/24 00:30:39;;;;;;;22.55;4.68;;;;;;;14.78;94.89;100274.66;5097136;28;20040;-45
2022/10/24 00:33:05;;;;;;;19.80;4.93;;;;;;;14.71;95.27;100272.88;5096615;28;20026;-48
2022/10/24 00:35:32;;;;;;;19.83;4.97;;;;;;;14.70;95.19;100272.88;5096235;28;20032;-47
2022/10/24 00:37:58;;;;;;;20.25;4.40;;;;;;;14.62;95.74;100268.50;5096635;28;20052;-48
2022/10/24 00:40:23;;;;;;;17.30;4.53;;;;;;;14.68;94.14;100266.81;5096663;28;20437;-47
2022/10/24 00:42:48;;;;;;;18.95;4.72;;;;;;;14.73;93.44;100270.28;5095441;28;20078;-48
2022/10/24 00:45:41;;;;;;;20.30;4.70;;;;;;;14.80;93.77;100278.09;5096868;28;20020;-47
2022/10/24 00:48:32;;;;;;;20.80;4.60;;;;;;;14.75;93.60;100279.81;5096288;28;20069;-48
2022/10/24 00:51:06;;;;;;;20.15;5.30;;;;;;;14.77;92.73;100272.03;5095398;28;20028;-48
2022/10/24 00:53:36;;;;;;;21.35;4.72;;;;;;;14.74;92.28;100272.88;5096673;28;20112;-48
2022/10/24 00:56:04;;;;;;;22.58;5.28;;;;;;;14.74;92.14;100269.44;5096257;28;20114;-47
2022/10/24 00:58:32;;;;;;;20.52;5.35;;;;;;;14.75;91.65;100269.44;5096150;28;20043;-48
2022/10/24 01:00:57;;;;;;;;;;;;;;;14.76;93.39;100268.59;5096592;28;20020;-47
2022/10/24 01:03:23;;;;;;;23.77;5.45;;;;;;;14.74;91.44;100256.47;5095504;28;19919;-46
2022/10/24 01:06:22;;;;;;;25.15;5.88;;;;;;;14.74;91.94;100265.09;5096233;28;20016;-44
2022/10/24 01:09:16;;;;;;;19.88;4.72;;;;;;;14.70;91.40;100255.59;5096045;28;20127;-43
2022/10/24 01:12:00;;;;;;;18.90;6.90;;;;;;;14.75;90.90;100259.06;5095405;28;20471;-47
2022/10/24 01:14:51;;;;;;;24.13;5.50;;;;;;;14.75;91.30;100253.03;5096303;28;20107;-47
2022/10/24 01:17:30;;;;;;;17.10;5.63;;;;;;;14.79;89.85;100255.59;5095693;28;20060;-48
2022/10/24 01:20:37;;;;;;;15.57;5.35;;;;;;;14.84;89.91;100247.84;5095682;28;20035;-45
2022/10/24 01:23:43;;;;;;;20.00;5.43;;;;;;;14.80;90.03;100254.75;5095986;28;20236;-48
2022/10/24 01:26:27;;;;;;;20.85;5.55;;;;;;;14.84;89.46;100252.19;5094937;28;20057;-46
2022/10/24 01:29:15;;;;;;;17.00;5.53;;;;;;;14.79;88.94;100254.75;5095428;28;20379;-48
2022/10/24 01:31:49;;;;;;;20.75;5.93;;;;;;;14.77;89.14;100249.56;5093947;28;20498;-47
2022/10/24 01:34:24;;;;;;;19.77;5.72;;;;;;;14.80;88.16;100251.31;5095766;28;20032;-45
2022/10/24 01:36:56;;;;;;;18.38;5.68;;;;;;;14.79;87.91;100244.38;5095403;28;20051;-47
2022/10/24 01:39:25;;;;;;;23.55;6.18;;;;;;;14.80;87.87;100246.13;5095082;28;20025;-48
2022/10/24 01:41:54;;;;;;;21.23;5.65;;;;;;;14.82;87.50;100241.78;5095192;28;20020;-47
2022/10/24 01:44:26;;;;;;;17.02;5.10;;;;;;;14.87;86.43;100244.41;5095389;28;20407;-46
2022/10/24 01:46:56;;;;;;;21.77;5.40;;;;;;;14.86;86.82;100251.34;5094416;28;20468;-46
2022/10/24 01:49:27;;;;;;;16.55;5.60;;;;;;;14.84;86.52;100239.22;5095505;28;20032;-46
2022/10/24 01:51:58;;;;;;;23.92;5.43;;;;;;;14.78;86.99;100230.56;5095319;28;20020;-47
2022/10/24 01:54:23;;;;;;;16.80;5.82;;;;;;;14.74;86.81;100225.34;5094787;28;20047;-45
2022/10/24 01:56:50;;;;;;;20.55;5.47;;;;;;;14.71;86.87;100221.00;5094986;28;20060;-48
2022/10/24 01:59:24;;;;;;;26.20;5.90;;;;;;;14.72;86.50;100222.75;5095316;28;20119;-48
2022/10/24 02:01:52;;;;;;;14.68;5.78;;;;;;;14.79;85.40;100227.06;5094868;28;20282;-48
2022/10/24 02:04:17;;;;;;;20.88;5.57;;;;;;;14.86;84.73;100225.38;5095321;28;20019;-48
2022/10/24 02:06:45;;;;;;;20.42;5.93;;;;;;;14.88;84.20;100223.63;5094236;28;20130;-45
2022/10/24 02:09:16;;;;;;;15.75;5.07;;;;;;;14.92;83.84;100221.94;5094846;28;20391;-49
2022/10/24 02:11:44;;;;;;;14.27;4.93;;;;;;;14.91;83.48;100230.56;5095263;28;20044;-46
2022/10/24 02:14:15;;;;;;;24.40;5.95;;;;;;;14.91;83.38;100222.78;5094097;28;20103;-46
2022/10/24 02:16:43;;;;;;;24.05;5.28;;;;;;;14.81;84.45;100227.97;5095166;28;20060;-48
2022/10/24 02:19:08;;;;;;;13.90;4.80;;;;;;;14.79;84.22;100229.66;5094950;28;20374;-48
2022/10/24 02:22:02;;;;;;;20.40;5.25;;;;;;;14.74;84.61;100228.78;5094125;28;20539;-47
2022/10/24 02:24:33;;;;;;;13.20;4.28;;;;;;;14.78;83.44;100227.97;5094745;28;20028;-48
2022/10/24 02:27:04;;;;;;;18.30;5.13;;;;;;;14.79;82.92;100224.47;5094425;28;20340;-46
2022/10/24 02:29:37;;;;;;;18.50;4.50;;;;;;;14.78;83.15;100225.38;5093841;28;20039;-48
2022/10/24 02:32:08;;;;;;;16.73;4.28;;;;;;;14.72;83.39;100227.94;5094458;28;20036;-48
2022/10/24 02:34:36;;;;;;;18.77;4.60;;;;;;;14.79;82.38;100229.66;5094115;28;20024;-44
2022/10/24 02:37:04;;;;;;;16.90;4.70;;;;;;;14.77;82.40;100231.41;5094230;28;20024;-48
2022/10/24 02:39:31;;;;;;;20.50;3.95;;;;;;;14.77;82.74;100223.63;5094703;28;20103;-49
2022/10/24 02:41:58;;;;;;;16.48;4.30;;;;;;;14.76;82.41;100228.81;5093141;28;20052;-48
2022/10/24 02:44:25;;;;;;;20.08;4.70;;;;;;;14.72;83.04;100225.34;5094236;28;20131;-49
2022/10/24 02:46:54;;;;;;;17.20;4.20;;;;;;;14.68;82.70;100226.22;5094158;28;20103;-48
2022/10/24 02:49:19;;;;;;;16.55;4.32;;;;;;;14.68;82.40;100223.63;5093371;28;20036;-47
2022/10/24 02:51:46;;;;;;;18.98;4.50;;;;;;;14.65;82.70;100226.19;5094014;28;20035;-48
2022/10/24 02:54:12;;;;;;;15.35;3.90;;;;;;;14.70;81.86;100221.88;5094244;28;20090;-48
2022/10/24 02:56:42;;;;;;;15.85;4.25;;;;;;;14.65;82.74;100226.19;5093345;28;20114;-47
2022/10/24 02:59:07;;;;;;;18.13;3.83;;;;;;;14.67;82.12;100234.84;5094203;28;20024;-46
2022/10/24 03:01:33;;;;;;;18.02;4.35;;;;;;;14.71;80.92;100227.94;5094213;28;20031;-47
2022/10/24 03:03:58;;;;;;;20.38;3.90;;;;;;;14.77;80.98;100226.22;5093097;28;20379;-47
2022/10/24 03:06:23;;;;;;;12.88;3.60;;;;;;;14.78;80.89;100222.78;5093968;28;20432;-47
2022/10/24 03:08:49;;;;;;;15.18;3.75;;;;;;;14.79;80.68;100231.41;5093652;28;20028;-46
2022/10/24 03:11:14;;;;;;;15.05;3.90;;;;;;;14.80;80.50;100230.56;5093116;28;20034;-47
2022/10/24 03:13:39;;;;;;;20.65;4.10;;;;;;;14.75;80.74;100237.47;5093908;28;20459;-47
2022/10/24 03:16:05;;;;;;;19.48;3.85;;;;;;;14.67;81.60;100234.84;5093541;28;20024;-48
2022/10/24 03:18:30;;;;;;;15.50;3.97;;;;;;;14.65;81.41;100229.66;5092994;28;20032;-48
2022/10/24 03:20:55;;;;;;;13.20;3.67;;;;;;;14.69;81.10;100233.09;5093277;28;20035;-48
2022/10/24 03:23:21;;;;;;;19.05;4.53;;;;;;;14.66;80.62;100222.72;5093588;28;20028;-47
2022/10/24 03:25:47;;;;;;;21.75;4.80;;;;;;;14.80;80.21;100238.34;5092793;28;20024;-48
2022/10/24 03:28:12;;;;;;;20.35;4.35;;;;;;;14.67;81.31;100234.84;5093597;28;20379;-47
2022/10/24 03:30:37;;;;;;;16.38;4.28;;;;;;;14.64;81.48;100224.44;5093540;28;20024;-47
2022/10/24 03:33:03;;;;;;;18.20;3.78;;;;;;;14.66;81.08;100233.09;5092552;28;20032;-46
2022/10/24 03:35:28;;;;;;;14.95;3.88;;;;;;;14.60;81.57;100220.06;5093421;28;20032;-47
2022/10/24 03:37:54;;;;;;;11.68;3.35;;;;;;;14.59;81.72;100223.53;5092615;28;20024;-47
2022/10/24 03:40:19;;;;;;;24.83;4.25;;;;;;;14.56;82.24;100220.94;5093508;28;20383;-48
2022/10/24 03:42:44;;;;;;;13.43;3.83;;;;;;;14.57;81.84;100218.34;5092930;28;20459;-47
2022/10/24 03:45:09;;;;;;;18.40;3.88;;;;;;;14.52;82.71;100211.41;5092424;28;20073;-48
2022/10/24 03:47:35;;;;;;;22.10;5.10;;;;;;;14.59;82.09;100210.56;5093296;28;20020;-47
2022/10/24 03:50:00;;;;;;;15.32;4.07;;;;;;;14.58;81.91;100208.84;5092966;28;20028;-45
2022/10/24 03:52:25;;;;;;;15.48;4.18;;;;;;;14.60;81.85;100201.94;5092410;28;20468;-48
2022/10/24 03:54:51;;;;;;;16.83;4.53;;;;;;;14.55;82.45;100203.63;5092630;28;20084;-49
2022/10/24 03:57:16;;;;;;;14.70;4.10;;;;;;;14.49;82.46;100197.56;5093271;28;20032;-48
2022/10/24 03:59:41;;;;;;;17.23;4.57;;;;;;;14.40;83.33;100205.34;5092398;28;20480;-48
2022/10/24 04:02:06;;;;;;;19.67;4.43;;;;;;;14.46;82.77;100202.75;5092829;28;20036;-48
2022/10/24 04:04:32;;;;;;;14.57;3.95;;;;;;;14.46;83.28;100205.34;5093029;28;20028;-47
2022/10/24 04:06:59;;;;;;;19.65;4.20;;;;;;;14.52;82.74;100209.69;5092176;28;20464;-47
2022/10/24 04:09:25;;;;;;;25.13;4.50;;;;;;;14.47;83.01;100207.09;5093217;28;20048;-47
2022/10/24 04:11:52;;;;;;;20.98;4.25;;;;;;;14.49;83.08;100213.13;5092763;28;20053;-48
2022/10/24 04:14:17;;;;;;;16.88;3.75;;;;;;;14.58;82.17;100204.53;5092217;28;20024;-47
2022/10/24 04:16:43;;;;;;;19.85;4.30;;;;;;;14.60;82.39;100212.31;5092865;28;20153;-45
2022/10/24 04:19:09;;;;;;;19.02;4.22;;;;;;;14.54;83.14;100207.97;5092766;28;20031;-45
2022/10/24 04:21:34;;;;;;;21.55;4.32;;;;;;;14.64;82.01;100214.06;5092360;28;20020;-48
2022/10/24 04:24:00;;;;;;;21.35;4.28;;;;;;;14.69;81.75;100207.16;5092740;28;20069;-47
2022/10/24 04:26:25;;;;;;;16.92;3.92;;;;;;;14.64;82.17;100203.69;5092974;28;20016;-49
2022/10/24 04:28:50;;;;;;;19.67;3.85;;;;;;;14.61;82.17;100198.47;5091800;28;20094;-48
2022/10/24 04:31:16;;;;;;;17.85;4.25;;;;;;;14.64;81.67;100198.50;5092799;28;20073;-49
2022/10/24 04:33:41;;;;;;;19.80;3.80;;;;;;;14.62;82.15;100189.84;5092732;28;20387;-47
2022/10/24 04:36:07;;;;;;;18.48;3.95;;;;;;;14.71;81.10;100205.44;5091608;28;20436;-48
2022/10/24 04:38:32;;;;;;;19.02;3.70;;;;;;;14.72;80.83;100206.31;5092979;28;20074;-48
2022/10/24 04:40:57;;;;;;;21.42;3.75;;;;;;;14.72;80.45;100195.94;5092655;28;20044;-46
2022/10/24 04:43:23;;;;;;;19.50;3.53;;;;;;;14.70;80.39;100201.13;5091838;28;20044;-45
2022/10/24 04:45:49;;;;;;;16.33;3.35;;;;;;;14.71;80.39;100196.81;5092517;28;20021;-47
2022/10/24 04:48:15;;;;;;;16.77;3.70;;;;;;;14.62;81.08;100195.03;5091804;28;20028;-47
2022/10/24 04:50:42;;;;;;;13.95;3.17;;;;;;;14.61;80.75;100209.69;5092765;28;20020;-48
2022/10/24 04:53:07;;;;;;;16.73;3.55;;;;;;;14.63;80.68;100208.00;5092693;28;20028;-45
2022/10/24 04:55:33;;;;;;;19.42;3.58;;;;;;;14.64;81.07;100203.69;5091700;28;20093;-47
2022/10/24 04:57:58;;;;;;;21.75;3.35;;;;;;;14.70;80.67;100208.91;5092103;28;20036;-47
2022/10/24 05:00:24;;;;;;;18.20;3.53;;;;;;;14.75;80.40;100207.19;5092612;28;20028;-47
2022/10/24 05:02:49;;;;;;;19.80;3.72;;;;;;;14.72;80.61;100207.19;5091385;28;20058;-45
2022/10/24 05:05:16;;;;;;;21.27;4.00;;;;;;;14.69;81.11;100207.16;5094412;28;20495;-46
2022/10/24 05:07:42;;;;;;;19.05;3.53;;;;;;;14.69;80.95;100212.34;5096502;28;20024;-48
2022/10/24 05:10:07;;;;;;;16.48;3.42;;;;;;;14.78;80.58;100202.03;5095361;28;20036;-48
2022/10/24 05:12:33;;;;;;;14.95;3.35;;;;;;;14.80;80.29;100209.81;5096139;28;20348;-47
2022/10/24 05:14:58;;;;;;;24.42;3.58;;;;;;;14.80;80.44;100213.25;5095860;28;20077;-48
2022/10/24 05:17:23;;;;;;;19.40;3.08;;;;;;;14.76;81.12;100213.25;5095172;28;20031;-49
2022/10/24 05:19:48;;;;;;;19.50;3.45;;;;;;;14.73;81.20;100227.09;5095725;28;20024;-47
2022/10/24 05:22:14;;;;;;;20.38;3.85;;;;;;;14.77;81.06;100220.16;5096091;28;20028;-47
2022/10/24 05:24:39;;;;;;;19.23;4.47;;;;;;;14.74;81.61;100226.19;5095268;28;20032;-47
2022/10/24 05:27:04;;;;;;;17.52;3.70;;;;;;;14.82;81.05;100231.41;5095934;28;20032;-44
2022/10/24 05:29:30;;;;;;;20.65;3.65;;;;;;;14.76;81.49;100234.00;5095667;28;20039;-46
2022/10/24 05:31:55;;;;;;;20.17;4.07;;;;;;;14.78;81.82;100238.34;5094708;28;20028;-47
2022/10/24 05:34:21;;;;;;;22.20;3.90;;;;;;;14.86;81.70;100234.88;5095996;28;20020;-47
2022/10/24 05:36:46;;;;;;;29.33;4.30;;;;;;;14.89;81.65;100240.09;5095642;28;20107;-47
2022/10/24 05:39:11;;;;;;;21.17;3.65;;;;;;;14.90;81.63;100237.50;5094914;28;20024;-48
2022/10/24 05:41:37;;;;;;;23.30;3.72;;;;;;;14.92;81.29;100225.38;5095670;28;20016;-48
2022/10/24 05:44:03;;;;;;;25.25;4.45;;;;;;;14.91;81.73;100241.81;5095204;28;20048;-48
2022/10/24 05:46:28;;;;;;;18.38;3.50;;;;;;;14.92;81.63;100234.91;5095206;28;20023;-47
2022/10/24 05:48:53;;;;;;;26.48;4.82;;;;;;;14.97;81.30;100233.19;5095097;28;20068;-49
2022/10/24 05:51:19;;;;;;;18.15;3.70;;;;;;;14.93;81.43;100223.66;5095609;28;20471;-47
2022/10/24 05:53:44;;;;;;;22.38;4.22;;;;;;;14.93;80.94;100228.84;5094528;28;20035;-48
2022/10/24 05:56:09;;;;;;;24.45;4.63;;;;;;;14.93;80.93;100236.63;5095397;28;20464;-47
2022/10/24 05:58:35;;;;;;;23.67;4.07;;;;;;;14.92;81.23;100240.09;5094660;28;20027;-47
2022/10/24 06:01:00;;;;;;;23.02;4.28;;;;;;;14.86;81.25;100237.47;5094983;28;20016;-47
2022/10/24 06:03:25;;;;;;;23.27;4.00;;;;;;;14.91;80.86;100243.53;5095114;28;20039;-48
2022/10/24 06:05:51;;;;;;;22.20;4.10;;;;;;;14.79;81.93;100234.84;5094253;28;20027;-48
2022/10/24 06:08:16;;;;;;;18.23;3.60;;;;;;;14.82;81.03;100227.09;5094918;28;20480;-48
2022/10/24 06:10:49;;;;;;;24.98;3.95;;;;;;;14.75;82.00;100245.25;5095048;28;20110;-46
2022/10/24 06:13:15;;;;;;;21.42;4.25;;;;;;;14.80;81.46;100246.13;5094352;28;20095;-48
2022/10/24 06:15:41;;;;;;;16.17;3.75;;;;;;;14.72;82.05;100243.50;5094435;28;20353;-48
2022/10/24 06:18:07;;;;;;;23.98;4.45;;;;;;;14.71;82.03;100257.31;5094164;28;20111;-48
2022/10/24 06:20:32;;;;;;;25.90;4.18;;;;;;;14.80;81.46;100235.75;5094138;28;20107;-45
2022/10/24 06:22:57;;;;;;;24.25;3.80;;;;;;;14.77;81.88;100259.94;5094389;28;20050;-48
2022/10/24 06:25:22;;;;;;;28.88;4.10;;;;;;;14.72;82.23;100246.09;5094787;28;20472;-47
2022/10/24 06:27:48;;;;;;;28.50;4.35;;;;;;;14.68;82.26;100252.16;5093605;28;20106;-48
2022/10/24 06:30:13;;;;;;;20.83;3.88;;;;;;;14.71;82.29;100243.50;5094584;28;20055;-45
2022/10/24 06:32:39;;;;;;;28.58;3.95;;;;;;;14.67;82.73;100247.81;5094544;28;20039;-46
2022/10/24 06:35:05;;;;;;;24.38;3.83;;;;;;;14.62;83.07;100247.75;5093640;28;20107;-47
2022/10/24 06:37:31;;;;;;;26.15;3.65;;;;;;;14.58;83.38;100260.72;5094607;28;20073;-49
2022/10/24 06:39:56;;;;;;;22.35;3.97;;;;;;;14.61;83.30;100261.56;5094079;28;20020;-44
2022/10/24 06:42:21;;;;;;;22.58;3.58;;;;;;;14.54;84.02;100266.72;5093845;28;20039;-48
2022/10/24 06:44:46;;;;;;;24.10;4.28;;;;;;;14.49;84.09;100277.94;5094121;28;20051;-48
2022/10/24 06:47:12;;;;;;;22.90;5.05;;;;;;;14.49;84.48;100271.91;5094255;28;20024;-48
2022/10/24 06:49:37;;;;;;;23.55;3.63;;;;;;;14.51;84.26;100282.28;5093677;28;20028;-48
2022/10/24 06:52:03;;;;;;;33.55;4.70;;;;;;;14.48;84.56;100286.59;5093931;28;20387;-47
2022/10/24 06:54:28;;;;;;;30.92;4.30;;;;;;;14.51;84.52;100283.13;5094420;28;20032;-46
2022/10/24 06:56:54;;;;;;;29.42;4.13;;;;;;;14.51;84.45;100280.53;5093130;28;20027;-45
2022/10/24 06:59:19;;;;;;;28.50;4.07;;;;;;;14.49;84.65;100280.53;5094012;28;20028;-45
2022/10/24 07:01:44;;;;;;;25.60;3.55;;;;;;;14.55;84.30;100284.91;5093755;28;20020;-48
2022/10/24 07:04:10;;;;;;;29.30;4.57;;;;;;;14.64;84.27;100300.53;5093240;28;20024;-48
2022/10/24 07:06:35;;;;;;;28.65;4.13;;;;;;;14.72;83.41;100300.56;5094115;28;20032;-48
2022/10/24 07:09:03;;;;;;;31.02;4.75;;;;;;;14.72;83.68;100304.88;5093000;28;20140;-46
2022/10/24 07:11:28;;;;;;;23.95;4.78;;;;;;;14.69;84.52;100310.06;5093866;28;20383;-47
2022/10/24 07:13:54;;;;;;;26.67;3.72;;;;;;;14.61;85.61;100302.22;5093591;28;20020;-45
2022/10/24 07:16:21;;;;;;;28.20;4.32;;;;;;;14.57;86.21;100306.50;5093061;28;20471;-48
2022/10/24 07:18:46;;;;;;;24.30;4.25;;;;;;;14.54;86.59;100308.22;5093810;28;20016;-47
2022/10/24 07:21:18;;;;;;;25.48;4.35;;;;;;;14.44;87.96;100320.28;5093491;28;20031;-47
2022/10/24 07:23:43;;;;;;;35.03;4.50;;;;;;;14.39;88.75;100317.66;5092780;28;20054;-47
2022/10/24 07:26:11;;;;;;;25.75;4.60;;;;;;;14.41;89.08;100318.53;5093559;28;20028;-47
2022/10/24 07:28:38;;;;;;;34.00;4.85;;;;;;;14.45;89.01;100327.22;5093417;28;20023;-48
2022/10/24 07:31:05;;;;;;;25.45;3.78;;;;;;;14.48;89.32;100338.44;5092423;28;20040;-48
2022/10/24 07:33:31;;;;;;;27.52;4.13;;;;;;;14.55;89.81;100333.28;5093656;28;20020;-48
2022/10/24 07:35:57;;;;;;;32.20;4.60;;;;;;;14.59;89.38;100348.00;5093188;28;20452;-47
2022/10/24 07:38:23;;;;;;;31.33;4.43;;;;;;;14.65;88.92;100353.25;5092456;28;20084;-49
2022/10/24 07:40:49;;;;;;;22.40;4.63;;;;;;;14.65;88.70;100348.06;5093114;28;20022;-46
2022/10/24 07:43:14;;;;;;;31.50;4.00;;;;;;;14.68;88.07;100353.28;5093160;28;20043;-48
2022/10/24 07:45:40;;;;;;;28.30;4.15;;;;;;;14.72;88.10;100361.94;5092417;28;20058;-49
2022/10/24 07:48:05;;;;;;;23.88;4.07;;;;;;;14.83;87.44;100368.03;5093142;28;20031;-47
2022/10/24 07:50:32;;;;;;;27.88;4.25;;;;;;;14.88;87.43;100368.06;5093163;28;20063;-48
2022/10/24 07:52:57;;;;;;;27.42;3.95;;;;;;;14.88;86.92;100371.53;5092217;28;20024;-47
2022/10/24 07:55:23;;;;;;;27.73;4.22;;;;;;;14.85;87.74;100379.31;5093151;28;20024;-47
2022/10/24 07:57:48;;;;;;;30.92;4.53;;;;;;;14.82;86.95;100374.97;5092661;28;20028;-48
2022/10/24 08:00:14;;;;;;;32.08;4.55;;;;;;;14.80;87.92;100402.63;5092491;28;20056;-48
2022/10/24 08:02:39;;;;;;;23.95;4.22;;;;;;;14.79;88.39;100385.31;5093182;28;20024;-48
2022/10/24 08:05:05;;;;;;;24.58;4.07;;;;;;;14.82;86.93;100393.13;5092765;28;20410;-48
2022/10/24 08:07:30;;;;;;;20.95;3.85;;;;;;;14.88;87.09;100388.84;5092320;28;20459;-48
2022/10/24 08:09:56;;;;;;;21.40;3.20;;;;;;;14.95;86.75;100390.56;5092540;28;20028;-47
2022/10/24 08:12:21;;;;;;;17.27;3.20;;;;;;;15.01;86.05;100395.78;5092044;28;20020;-47
2022/10/24 08:14:46;;;;;;;26.23;3.55;;;;;;;14.97;86.09;100391.47;5092647;28;20141;-48
2022/10/24 08:17:11;;;;;;;28.15;4.13;;;;;;;14.95;85.47;100386.28;5092914;28;20066;-46
2022/10/24 08:19:40;;;;;;;32.00;4.55;;;;;;;14.98;85.90;100395.81;5092191;28;20020;-49
2022/10/24 08:22:07;;;;;;;27.38;3.92;;;;;;;15.02;86.11;100402.72;5092709;28;20020;-48
2022/10/24 08:24:32;;;;;;;24.75;4.13;;;;;;;15.19;84.77;100400.19;5092949;28;20107;-47
2022/10/24 08:26:58;;;;;;;30.45;4.15;;;;;;;15.26;84.32;100411.47;5091809;28;20099;-47
2022/10/24 08:29:24;;;;;;;25.42;4.55;;;;;;;15.25;84.64;100414.94;5092699;28;20039;-49
2022/10/24 08:31:51;;;;;;;25.67;3.83;;;;;;;15.27;84.20;100414.09;5092665;28;20029;-46
2022/10/24 08:34:17;;;;;;;;;;;;;;;15.34;85.05;100425.34;5092472;28;20024;-46
2022/10/24 08:36:43;;;;;;;28.95;3.75;;;;;;;15.23;83.22;100416.66;5092820;28;19919;-44
2022/10/24 08:39:08;;;;;;;25.17;3.63;;;;;;;15.21;82.78;100413.16;5092757;28;20024;-47
2022/10/24 08:41:40;;;;;;;21.23;3.60;;;;;;;15.38;82.73;100421.91;5095826;28;20142;-47
2022/10/24 08:44:23;;;;;;;21.90;3.67;;;;;;;15.51;81.06;100406.34;5096582;28;20073;-47
2022/10/24 08:46:59;;;;;;;28.15;3.92;;;;;;;15.69;80.25;100414.16;5096271;28;20394;-48
2022/10/24 08:49:44;;;;;;;23.30;3.53;;;;;;;15.81;79.80;100415.94;5095864;28;20043;-48
2022/10/24 08:52:22;;;;;;;21.80;3.03;;;;;;;15.88;79.12;100428.09;5096470;28;20020;-48
2022/10/24 08:54:50;;;;;;;28.98;4.15;;;;;;;15.95;78.40;100418.56;5095600;28;20034;-48
2022/10/24 08:57:23;;;;;;;21.05;3.22;;;;;;;16.05;78.53;100429.81;5096594;28;20031;-48
2022/10/24 08:59:50;;;;;;;21.38;3.85;;;;;;;16.10;77.33;100426.38;5096334;28;20052;-47
2022/10/24 09:02:23;;;;;;;18.48;3.10;;;;;;;16.19;77.57;100428.09;5095692;28;20024;-48
2022/10/24 09:04:52;;;;;;;17.40;2.97;;;;;;;16.28;75.34;100424.59;5096029;28;20371;-49
2022/10/24 09:07:20;;;;;;;24.73;3.40;;;;;;;16.39;74.72;100419.41;5096336;28;20020;-48
2022/10/24 09:09:49;;;;;;;23.65;3.30;;;;;;;16.52;74.14;100426.31;5095073;28;20059;-48
2022/10/24 09:12:18;;;;;;;20.23;2.83;;;;;;;16.64;73.08;100433.22;5096308;28;20107;-47
2022/10/24 09:14:46;;;;;;;16.45;2.58;;;;;;;16.76;72.87;100433.22;5095970;28;20077;-48
2022/10/24 09:17:31;;;;;;;19.27;2.75;;;;;;;16.96;73.00;100445.34;5095145;28;20031;-45
2022/10/24 09:20:00;;;;;;;19.50;2.97;;;;;;;17.04;71.08;100440.97;5095942;28;20028;-48
2022/10/24 09:22:29;;;;;;;16.63;2.75;;;;;;;17.18;70.28;100437.44;5096029;28;20077;-47
2022/10/24 09:25:01;;;;;;;18.70;2.70;;;;;;;17.33;70.27;100447.81;5095554;28;20057;-47
2022/10/24 09:27:33;;;;;;;19.35;3.05;;;;;;;17.64;69.31;100457.16;5095735;28;20024;-47
2022/10/24 09:29:58;;;;;;;21.88;3.33;;;;;;;18.05;68.59;100449.13;5094868;28;20036;-48
2022/10/24 09:32:30;;;;;;;22.98;3.40;;;;;;;18.13;68.03;100448.19;5095941;28;20073;-45
2022/10/24 09:34:59;;;;;;;22.95;3.90;;;;;;;18.24;67.14;100442.03;5095581;28;20024;-47
2022/10/24 09:37:36;;;;;;;25.45;3.30;;;;;;;18.15;66.80;100464.69;5094924;28;20020;-47
2022/10/24 09:40:21;;;;;;;20.50;3.45;;;;;;;18.00;66.14;100456.13;5095312;28;20369;-47
2022/10/24 09:43:07;;;;;;;15.65;2.97;;;;;;;18.13;66.31;100469.03;5095188;28;20028;-48
2022/10/24 09:45:45;;;;;;;21.48;3.47;;;;;;;17.98;65.86;100459.63;5094598;28;20390;-47
2022/10/24 09:48:18;;;;;;;;;;;;;;;17.97;64.89;100473.53;5095778;28;20425;-47
2022/10/24 09:50:46;;;;;;;21.40;3.22;;;;;;;17.74;65.88;100475.38;5093771;28;19916;-48
2022/10/24 09:53:27;;;;;;;27.13;3.55;;;;;;;17.60;66.31;100487.63;5095108;28;20055;-46
2022/10/24 09:56:06;;;;;;;24.17;3.65;;;;;;;17.74;67.13;100484.91;5094975;28;20425;-45
2022/10/24 09:58:32;;;;;;;18.48;3.33;;;;;;;17.88;67.26;100487.44;5094525;28;20464;-47
2022/10/24 10:01:03;;;;;;;25.52;3.55;;;;;;;18.22;66.00;100479.44;5094890;28;20069;-46
2022/10/24 10:03:30;;;;;;;25.10;3.83;;;;;;;18.36;64.94;100485.41;5095406;28;20025;-46
2022/10/24 10:06:03;;;;;;;22.13;4.00;;;;;;;18.63;64.45;100493.88;5094053;28;20357;-45
2022/10/24 10:08:35;;;;;;;20.83;3.30;;;;;;;18.71;64.08;100507.69;5095169;28;20028;-46
2022/10/24 10:11:07;;;;;;;23.27;3.45;;;;;;;18.69;62.92;100487.72;5094703;28;20111;-46
2022/10/24 10:13:44;;;;;;;19.85;3.30;;;;;;;18.63;62.87;100492.97;5094246;28;20020;-45
2022/10/24 10:16:20;;;;;;;;;;;;;;;18.62;62.68;100497.34;5095404;28;20024;-47
2022/10/24 10:18:47;;;;;;;27.15;4.40;;;;;;;18.05;63.76;100513.44;5094255;28;19916;-44
2022/10/24 10:21:17;;;;;;;28.25;3.53;;;;;;;18.20;64.76;100515.09;5094935;28;20028;-47
2022/10/24 10:23:47;;;;;;;22.08;3.85;;;;;;;18.33;65.04;100519.31;5094545;28;20085;-44
2022/10/24 10:26:29;;;;;;;21.80;3.95;;;;;;;18.67;65.06;100526.88;5094166;28;20020;-44
2022/10/24 10:28:57;;;;;;;19.67;4.00;;;;;;;18.99;63.45;100517.91;5094450;28;20028;-47
2022/10/24 10:31:31;;;;;;;23.50;4.13;;;;;;;18.92;61.93;100500.56;5094757;28;20028;-47
2022/10/24 10:34:39;;;;;;;23.77;3.72;;;;;;;19.36;63.22;100527.06;5093605;28;20062;-47
2022/10/24 10:37:22;;;;;;;24.67;4.05;;;;;;;19.55;59.48;100532.94;5094403;28;20101;-47
2022/10/24 10:39:53;;;;;;;23.50;3.35;;;;;;;19.41;59.77;100526.13;5094470;28;20089;-44
2022/10/24 10:42:35;;;;;;;28.00;3.55;;;;;;;19.53;60.48;100542.53;5094441;28;20024;-45
2022/10/24 10:45:18;;;;;;;27.63;4.78;;;;;;;19.05;59.98;100536.09;5093868;28;20134;-47
2022/10/24 10:48:08;;;;;;;22.58;4.03;;;;;;;18.46;63.13;100551.41;5093270;28;20111;-48
2022/10/24 10:51:02;;;;;;;19.15;3.63;;;;;;;17.88;63.16;100550.91;5094205;28;20039;-47
2022/10/24 10:53:55;;;;;;;25.70;3.55;;;;;;;17.24;65.30;100557.22;5094481;28;20020;-46
2022/10/24 10:56:26;;;;;;;21.48;3.38;;;;;;;16.87;67.63;100572.88;5093844;28;20495;-47
2022/10/24 10:59:03;;;;;;;22.95;3.83;;;;;;;16.63;69.23;100562.47;5093902;28;20055;-47
2022/10/24 11:01:31;;;;;;;;;;;;;;;16.67;69.30;100568.53;5093708;28;20059;-48
2022/10/24 11:04:22;;;;;;;22.55;3.80;;;;;;;16.35;71.25;100573.75;5093591;28;19912;-46
2022/10/24 11:07:13;;;;;;;26.90;4.07;;;;;;;16.16;74.04;100583.22;5093809;28;20024;-45
2022/10/24 11:09:45;;;;;;;24.77;4.03;;;;;;;15.78;77.96;100577.88;5092963;28;20032;-47
2022/10/24 11:12:20;;;;;;;21.90;4.15;;;;;;;15.48;80.35;100579.47;5093844;28;20024;-47
2022/10/24 11:14:52;;;;;;;24.13;3.70;;;;;;;15.29;81.37;100572.47;5093862;28;20028;-47
2022/10/24 11:18:00;;;;;;;21.60;3.85;;;;;;;15.84;81.21;100581.38;5092838;28;20440;-46
2022/10/24 11:20:33;;;;;;;26.15;3.70;;;;;;;16.60;78.76;100579.81;5081714;28;20048;-47
2022/10/24 11:23:06;;;;;;;20.98;3.55;;;;;;;17.07;76.73;100572.91;5092558;28;20020;-47
2022/10/24 11:25:42;;;;;;;30.23;3.85;;;;;;;17.70;73.22;100577.03;5093692;28;20034;-47
2022/10/24 11:28:45;;;;;;;24.65;3.63;;;;;;;17.93;72.43;100574.34;5093435;28;20107;-48
2022/10/24 11:31:25;;;;;;;21.90;3.78;;;;;;;18.41;70.88;100567.09;5002940;28;20045;-47